Drachten Airfield

EHDR · Friesland, 荷兰

罗盘
风向 的 风向 的 风向 到 风向 070° Drachten Airfield 7/25
风: 11 kt, 4 beaufort

11 kt

1 kt
改变
0 1.000 2.000 3.000 4.000 5.000
OVC 2.000 ft
METAR EHLW 041055Z AUTO 07011KT 350V130 9000 BR OVC020 02/M00 Q1020 WHT

METAR Drachten Airfield - EHDR

Drachten Airfield是,荷兰中的小机场。 该机场有一条跑道: 7/25. 该领域的国际民航组织标志是EHDR.

这份报告是针对2022年12月4日 11:55, 当地时间在Leeuwarden Air Base进行的。

机场观察

风向为070°,速度为11 kt。 风向在350°和130°之间变化。

可见度为9 km。

有乌云密布在2.000 ft的高度。 破损或更高的上限为2.000 ft。

当前天气为薄雾。 温度为2 °C,阵风为-4 °C。 海平面上的气压为1020 hPa (QNH)。

白天

今天,太阳从08:30升起,在16:20降落。 这适用于Drachten Airfield,世界夏令时可能有所不同。 当地时间与世界标准时间之间的时差为+1 小时。 当前,没有夏令时有效。

公司介绍

我们没有关于这个机场的公司信息。

体会

到Vliegles.nl去找飞行课程,跳伞和其他飞行体验。 浏览页面,了解Drachten Airfield附近所有可用的活动。 你也可以使用搜索功能来寻找你所在地附近的特定飞行课程、跳伞或其他飞行体验。

跑道

Id 标题 侧风 逆风 侧风 %
7/25 074°-254° 11 kt 7 %

逆风成分最大的方向会被突出显示,并用于横风计算。 这并不一定意味着这个方向在使用。

乌云

2.000 ft OVC 乌云密布

温度 & 天气

天气 薄雾
温度 2 °C
露点 0 °C
相对湿度 87%
风寒 -4 °C
Kp-index 2 (0-9)

白天

日出
08:32
中午
12:27
日落
16:21 (4:08)

小工具

你想在你的网站上有一个关于Drachten Airfield的当前航空天气(METAR)的小部件吗?

显示HTML代码

我们和第三方通过cookies跟踪您在我们网站上的互联网行为。如果你继续,我们认为你同意我们的饼干政策